createdAt,value
2018-05-25T07:29:45.739Z,49.9
2018-05-25T07:30:36.091Z,50.1
2018-05-25T07:31:26.423Z,50.4
2018-05-25T07:32:16.510Z,50.6
2018-05-25T07:33:06.570Z,50.8
2018-05-25T07:33:56.626Z,50.9
2018-05-25T07:34:46.412Z,51.1
2018-05-25T07:35:36.767Z,51.3
2018-05-25T07:36:26.818Z,51.4
2018-05-25T07:37:16.326Z,51.2
2018-05-25T07:38:06.958Z,51.3
2018-05-25T07:38:57.027Z,51.4
2018-05-25T07:39:46.809Z,51.6
2018-05-25T07:40:37.138Z,51.8
2018-05-25T07:41:26.951Z,52
2018-05-25T07:42:17.279Z,52.1
2018-05-25T07:43:07.054Z,52.3
2018-05-25T07:43:57.125Z,52.4
2018-05-25T07:44:47.478Z,52.6
2018-05-25T07:45:37.271Z,52.8
2018-05-25T07:46:27.618Z,52.9
2018-05-25T07:47:17.705Z,53.1
2018-05-25T07:48:07.463Z,53.2
2018-05-25T07:48:57.801Z,53.4
2018-05-25T07:49:47.856Z,53.6
2018-05-25T07:50:37.637Z,53.7
2018-05-25T07:51:27.991Z,53.8
2018-05-25T07:52:18.053Z,53.9
2018-05-25T07:53:08.119Z,54.1
2018-05-25T07:53:58.169Z,54.3
2018-05-25T07:54:48.249Z,54.4
2018-05-25T07:55:37.734Z,54.4
2018-05-25T07:56:28.379Z,54.6
2018-05-25T07:57:18.447Z,54.8
2018-05-25T07:58:08.510Z,54.8
2018-05-25T07:58:58.572Z,54.9
2018-05-25T07:59:48.634Z,55.1
2018-05-25T08:00:38.714Z,55.2
2018-05-25T08:01:28.752Z,55.3
2018-05-25T08:02:18.249Z,55.4
2018-05-25T08:03:08.949Z,55.4
2018-05-25T08:03:58.946Z,55.6
2018-05-25T08:04:49.014Z,55.6
2018-05-25T08:05:39.091Z,55.8
2018-05-25T08:06:29.409Z,55.9
2018-05-25T08:07:19.202Z,55.9
2018-05-25T08:08:08.998Z,56
2018-05-25T08:08:59.361Z,56.1
2018-05-25T08:09:49.400Z,56.3
2018-05-25T08:10:38.919Z,56.4
2018-05-25T08:11:29.543Z,56.5
2018-05-25T08:12:19.610Z,56.6
2018-05-25T08:13:09.677Z,56.6
2018-05-25T08:13:59.744Z,56.8
2018-05-25T08:14:49.791Z,56.9
2018-05-25T08:15:39.850Z,56.9
2018-05-25T08:16:29.641Z,57.1
2018-05-25T08:17:19.709Z,57.1
2018-05-25T08:18:09.774Z,57.3
2018-05-25T08:19:00.119Z,57.4
2018-05-25T08:19:49.906Z,57.4
2018-05-25T08:20:40.249Z,57.6
2018-05-25T08:21:30.309Z,57.6
2018-05-25T08:23:10.179Z,57.8
2018-05-25T08:24:00.526Z,57.9
2018-05-25T08:24:50.571Z,58.1
2018-05-25T08:25:40.654Z,58.1
2018-05-25T08:26:30.718Z,58.2
2018-05-25T08:27:20.767Z,58.4
2018-05-25T08:28:10.831Z,58.4
2018-05-25T08:29:00.903Z,58.5
2018-05-25T08:30:40.748Z,58.7
2018-05-25T08:31:30.820Z,58.8
2018-05-25T08:32:21.177Z,58.9
2018-05-25T08:33:10.648Z,58.9
2018-05-25T08:34:01.330Z,59.1
2018-05-25T08:34:51.359Z,59.1
2018-05-25T08:35:41.421Z,59.3
2018-05-25T08:36:31.497Z,59.3
2018-05-25T08:37:21.546Z,59.4
2018-05-25T08:38:11.621Z,59.4
2018-05-25T08:39:01.695Z,59.6
2018-05-25T08:39:51.740Z,59.7
2018-05-25T08:40:41.521Z,59.8
2018-05-25T08:41:31.591Z,59.8
2018-05-25T08:42:21.935Z,59.9
2018-05-25T08:43:12.088Z,60.1
2018-05-25T08:44:02.052Z,60.1
2018-05-25T08:44:52.146Z,60.2
2018-05-25T08:45:42.189Z,60.3
2018-05-25T08:46:32.276Z,60.4
2018-05-25T08:47:22.321Z,60.4
2018-05-25T08:48:12.568Z,60.6
2018-05-25T08:49:02.592Z,60.7
2018-05-25T08:49:52.308Z,60.8
2018-05-25T08:50:42.612Z,60.9
2018-05-25T08:51:32.660Z,61
2018-05-25T08:52:22.710Z,61.1
2018-05-25T08:53:12.222Z,61.1
2018-05-25T08:54:02.980Z,61.3
2018-05-25T08:54:53.002Z,61.4
2018-05-25T08:55:43.019Z,61.4
2018-05-25T08:56:33.035Z,61.6
2018-05-25T08:57:23.110Z,61.6
2018-05-25T08:58:13.164Z,61.7
2018-05-25T08:59:03.244Z,61.8
2018-05-25T08:59:53.321Z,61.9
2018-05-25T09:00:42.851Z,62
2018-05-25T09:01:33.435Z,62
2018-05-25T09:02:23.494Z,62.1
2018-05-25T09:03:13.275Z,62.2
2018-05-25T09:04:03.638Z,62.3
2018-05-25T09:04:53.685Z,62.4
2018-05-25T09:05:43.479Z,62.5
2018-05-25T09:06:33.825Z,62.5
2018-05-25T09:07:23.880Z,62.5
2018-05-25T09:08:13.675Z,62.5
2018-05-25T09:09:03.743Z,62.6
2018-05-25T09:09:53.792Z,62.8
2018-05-25T09:10:43.857Z,62.9
2018-05-25T09:11:34.220Z,62.9
2018-05-25T09:12:24.541Z,63.1
2018-05-25T09:13:14.367Z,63.1
2018-05-25T09:14:04.133Z,63.3
2018-05-25T09:14:54.540Z,63.3
2018-05-25T09:15:44.532Z,63.4
2018-05-25T09:16:34.074Z,63.5
2018-05-25T09:17:24.421Z,63.6
2018-05-25T09:18:14.729Z,63.7
2018-05-25T09:19:04.511Z,63.8
2018-05-25T09:19:54.865Z,63.8
2018-05-25T09:20:44.646Z,63.9
2018-05-25T09:21:35.100Z,64
2018-05-25T09:22:25.069Z,64.1
2018-05-25T09:23:15.114Z,64.2
2018-05-25T09:24:05.180Z,64.3
2018-05-25T09:24:54.996Z,64.4
2018-05-25T09:25:45.024Z,64.4
2018-05-25T09:26:35.374Z,64.5
2018-05-25T09:27:24.876Z,64.6
2018-05-25T09:28:15.515Z,64.7
2018-05-25T09:29:04.994Z,64.8
2018-05-25T09:29:55.641Z,64.9
2018-05-25T09:30:45.750Z,64.9
2018-05-25T09:31:35.203Z,65.1
2018-05-25T09:32:25.818Z,65.1
2018-05-25T09:33:15.910Z,65.3
2018-05-25T09:34:05.968Z,65.3
2018-05-25T09:34:56.013Z,65.4
2018-05-25T09:35:46.102Z,65.5
2018-05-25T09:36:36.151Z,65.6
2018-05-25T09:37:26.246Z,65.7
2018-05-25T09:38:16.004Z,65.8
2018-05-25T09:39:06.375Z,65.8
2018-05-25T09:39:56.136Z,65.9
2018-05-25T09:40:46.488Z,66.1
2018-05-25T09:41:36.588Z,66.2
2018-05-25T09:42:26.606Z,66.3
2018-05-25T09:43:16.685Z,66.1
2018-05-25T09:44:06.452Z,66.2
2018-05-25T09:44:56.807Z,66.4
2018-05-25T09:45:46.293Z,66.5
2018-05-25T09:46:36.962Z,66.7
2018-05-25T09:47:26.719Z,66.8
2018-05-25T09:48:17.062Z,66.9
2018-05-25T09:49:07.149Z,66.9
2018-05-25T09:49:57.181Z,67
2018-05-25T09:50:47.263Z,67
2018-05-25T09:51:37.334Z,66.7
2018-05-25T09:52:27.377Z,66.3
2018-05-25T09:53:17.468Z,65.8
2018-05-25T09:54:07.539Z,65.6
2018-05-25T09:54:57.591Z,65.4
2018-05-25T09:55:47.646Z,65.3
2018-05-25T09:56:37.432Z,65.3
2018-05-25T09:57:27.771Z,65.3
2018-05-25T09:58:17.842Z,65.7
2018-05-25T09:59:07.903Z,66.3
2018-05-25T09:59:57.964Z,66.6
2018-05-25T10:00:47.743Z,66.8
2018-05-25T10:01:38.098Z,66.9
2018-05-25T10:02:28.155Z,67.1
2018-05-25T10:03:17.957Z,67.3
2018-05-25T10:04:08.302Z,67.4
2018-05-25T10:04:58.076Z,67.4
2018-05-25T10:05:48.440Z,67.6
2018-05-25T10:06:38.524Z,67.7
2018-05-25T10:07:27.978Z,67.8
2018-05-25T10:08:18.622Z,67.9
2018-05-25T10:09:08.688Z,68
2018-05-25T10:09:58.752Z,68.1
2018-05-25T10:10:48.536Z,68.1
2018-05-25T10:11:38.876Z,68.1
2018-05-25T10:12:28.936Z,67.9
2018-05-25T10:13:18.729Z,67.7
2018-05-25T10:14:09.081Z,67.7
2018-05-25T10:14:59.130Z,68
2018-05-25T10:15:49.193Z,68.3
2018-05-25T10:16:39.276Z,68.3
2018-05-25T10:17:29.035Z,68.2
2018-05-25T10:18:19.115Z,68.1
2018-05-25T10:19:09.176Z,67.9
2018-05-25T10:19:59.241Z,67.6
2018-05-25T10:20:49.590Z,67.8
2018-05-25T10:21:39.659Z,68.2
2018-05-25T10:22:29.715Z,68.5
2018-05-25T10:23:19.780Z,68.7
2018-05-25T10:24:09.850Z,68.8
2018-05-25T10:24:59.906Z,68.9
2018-05-25T10:25:49.714Z,68.9
2018-05-25T10:26:39.763Z,69.1
2018-05-25T10:27:30.109Z,69.3
2018-05-25T10:28:19.895Z,69.1
2018-05-25T10:29:10.220Z,68.7
2018-05-25T10:30:00.300Z,68.3
2018-05-25T10:30:50.349Z,67.9
2018-05-25T10:31:39.856Z,67.8
2018-05-25T10:32:30.205Z,68.1
2018-05-25T10:33:20.552Z,68.6
2018-05-25T10:34:10.640Z,69
2018-05-25T10:35:00.832Z,69.2
2018-05-25T10:35:50.745Z,69.2
2018-05-25T10:36:40.809Z,69.3
2018-05-25T10:37:30.875Z,69.4
2018-05-25T10:38:20.962Z,69.6
2018-05-25T10:39:10.722Z,69.7
2018-05-25T10:40:01.085Z,69.8
2018-05-25T10:40:50.869Z,69.9
2018-05-25T10:41:41.214Z,69.9
2018-05-25T10:42:31.259Z,69.7
2018-05-25T10:43:21.054Z,69.4
2018-05-25T10:44:11.112Z,69.3
2018-05-25T10:45:01.477Z,69.1
2018-05-25T10:45:51.517Z,69.1
2018-05-25T10:46:41.584Z,69.1
2018-05-25T10:47:31.644Z,69.3
2018-05-25T10:48:21.441Z,69.6
2018-05-25T10:49:11.222Z,69.8
2018-05-25T10:50:01.590Z,69.9
2018-05-25T10:50:51.897Z,70.1
2018-05-25T10:51:41.689Z,70.1
2018-05-25T10:52:32.050Z,70.3
2018-05-25T10:53:21.807Z,70.3
2018-05-25T10:54:12.184Z,70.4
2018-05-25T10:55:02.266Z,70.6
2018-05-25T10:55:52.080Z,70.6
2018-05-25T10:56:42.369Z,70.7
2018-05-25T10:57:32.413Z,70.7
2018-05-25T10:58:22.208Z,70.7
2018-05-25T10:59:12.571Z,70.8
2018-05-25T11:00:02.350Z,70.8
2018-05-25T11:00:52.740Z,71
2018-05-25T11:01:42.468Z,71.1
2018-05-25T11:02:32.812Z,71.1
2018-05-25T11:03:22.596Z,71.2
2018-05-25T11:04:12.389Z,71.3
2018-05-25T11:05:03.015Z,71.3
2018-05-25T11:05:53.079Z,71.4
2018-05-25T11:06:43.141Z,71.4
2018-05-25T11:07:33.216Z,71.6
2018-05-25T11:08:23.259Z,71.6
2018-05-25T11:09:13.060Z,71.6
2018-05-25T11:10:03.318Z,71.8
2018-05-25T11:10:53.164Z,71.8
2018-05-25T11:11:43.257Z,71.9
2018-05-25T11:12:33.586Z,71.9
2018-05-25T11:13:23.663Z,72.1
2018-05-25T11:14:13.733Z,72.1
2018-05-25T11:15:03.791Z,72.2
2018-05-25T11:15:53.851Z,72.3
2018-05-25T11:16:43.911Z,72.3
2018-05-25T11:17:34.003Z,72.4
2018-05-25T11:18:24.045Z,72.4
2018-05-25T11:19:14.101Z,72.5
2018-05-25T11:20:04.178Z,72.6
2018-05-25T11:20:54.314Z,72.6
2018-05-25T11:21:44.320Z,72.7
2018-05-25T11:22:34.390Z,72.8
2018-05-25T11:23:24.442Z,72.8
2018-05-25T11:24:14.240Z,72.9
2018-05-25T11:25:04.297Z,72.9
2018-05-25T11:25:54.632Z,72.9
2018-05-25T11:26:44.459Z,73
2018-05-25T11:27:34.775Z,73.1
2018-05-25T11:28:24.823Z,73.1
2018-05-25T11:29:14.879Z,73.1
2018-05-25T11:30:04.971Z,73.2
2018-05-25T11:30:55.019Z,73.3
2018-05-25T11:31:45.106Z,73.3
2018-05-25T11:32:35.150Z,73.4
2018-05-25T11:33:25.213Z,73.4
2018-05-25T11:34:15.303Z,73.5
2018-05-25T11:35:05.334Z,73.6
2018-05-25T11:35:55.122Z,73.6
2018-05-25T11:36:45.198Z,73.6
2018-05-25T11:37:35.541Z,73.7
2018-05-25T11:38:25.601Z,73.8
2018-05-25T11:39:15.399Z,73.8
2018-05-25T11:40:05.740Z,73.7
2018-05-25T11:40:55.523Z,73.8
2018-05-25T11:41:45.862Z,73.8
2018-05-25T11:42:35.941Z,73.9
2018-05-25T11:43:25.722Z,74
2018-05-25T11:44:16.070Z,74.1
2018-05-25T11:45:06.124Z,74.1
2018-05-25T11:45:56.195Z,74.1
2018-05-25T11:46:46.245Z,74.2
2018-05-25T11:47:36.032Z,74.2
2018-05-25T11:48:26.395Z,74.3
2018-05-25T11:49:16.459Z,74.3
2018-05-25T11:50:06.507Z,74.4
2018-05-25T11:50:56.594Z,74.4
2018-05-25T11:51:46.372Z,74.4
2018-05-25T11:52:36.698Z,74.5
2018-05-25T11:53:26.482Z,74.6
2018-05-25T11:54:16.552Z,74.6
2018-05-25T11:55:06.897Z,74.7
2018-05-25T11:55:56.960Z,74.7
2018-05-25T11:56:47.034Z,74.7
2018-05-25T11:57:37.116Z,74.8
2018-05-25T11:58:26.594Z,74.8
2018-05-25T11:59:17.241Z,74.8
2018-05-25T12:00:07.296Z,74.9
2018-05-25T12:00:57.352Z,74.9
2018-05-25T12:01:47.232Z,74.8
2018-05-25T12:02:36.928Z,74.5
2018-05-25T12:03:27.276Z,74.3
2018-05-25T12:04:17.600Z,74.3
2018-05-25T12:05:07.108Z,74.2
2018-05-25T12:05:57.761Z,74.3
2018-05-25T12:06:47.522Z,74.6
2018-05-25T12:07:37.865Z,74.8
2018-05-25T12:08:27.660Z,74.8
2018-05-25T12:09:18.013Z,74.9
2018-05-25T12:10:08.097Z,74.6
2018-05-25T12:10:58.151Z,74.2
2018-05-25T12:11:48.193Z,73.8
2018-05-25T12:12:38.271Z,73.6
2018-05-25T12:13:28.328Z,73.6
2018-05-25T12:14:18.387Z,73.8
2018-05-25T12:15:08.197Z,74.1
2018-05-25T12:15:58.510Z,74.4
2018-05-25T12:16:48.588Z,74.5
2018-05-25T12:17:38.376Z,74.5
2018-05-25T12:18:28.738Z,74.5
2018-05-25T12:19:18.778Z,74.6
2018-05-25T12:20:08.843Z,74.6
2018-05-25T12:20:58.637Z,74.6
2018-05-25T12:21:48.997Z,74.4
2018-05-25T12:22:38.765Z,74.4
2018-05-25T12:23:29.110Z,74.4
2018-05-25T12:24:19.176Z,74.4
2018-05-25T12:25:08.987Z,74.4
2018-05-25T12:54:21.237Z,85
2018-05-25T12:55:11.279Z,73.8
2018-05-25T12:56:01.643Z,73.8
2018-05-25T12:56:51.707Z,73.9
2018-05-25T12:57:41.751Z,73.9
2018-05-25T12:58:31.816Z,73.9
2018-05-25T12:59:21.893Z,74
2018-05-25T13:00:11.945Z,74
2018-05-25T13:01:02.008Z,74
2018-05-25T13:01:52.069Z,74.1
2018-05-25T13:02:42.144Z,74.1
2018-05-25T13:03:32.222Z,74.1
2018-05-25T13:04:22.269Z,74.1
2018-05-25T13:05:12.356Z,74.2
2018-05-25T13:06:02.412Z,74.2
2018-05-25T13:06:52.466Z,74.2
2018-05-25T13:07:42.523Z,74.2
2018-05-25T13:08:32.328Z,74.2
2018-05-25T13:09:22.368Z,74.2
2018-05-25T13:10:12.717Z,74.2
